Walton on the Naze, United Kingdom
Current Conditions -  °F | °C
As of 7:50 PM on Monday 24 Nov 2014 (Local Time) from EGUW Reporting Station
Light Fog Light Fog  
Wind Chill: 39°   Ceiling: Unl
Heat Index: 39°   Visibility: 5mi
Dew Point: 37°   Wind: 1mph
Humidity: 93%   Direction: 290°WNW
Pressure: 30.33"   Gusts: NA
Location:  51.85°N, 1.27°E
Report Text: EGUW 241950Z 29001KT 8000 MIFG BR FEW200 04/03 Q1027 BLU BECMG 1500 AMB
Loading
Personal Weather Stations






























Interactive Weather Map New forecast layout! Learn more

10-Day Weather Forecast

Advertisements
Track Severe Weather on mobile